Pagina principale
METAR-TAF:

METAR-TAF

Aeroporti :

Aeroporto di Parigi Charles de Gaulle

Parigi-Charles De Gaulle, Francia

latitudine: 49-01N, longitudine: 002-32E, altezza: 118 m

Osservazione

Il bollettino è stato emesso 32 minuti fa, alle 17:30 UTC
Vento 6 kt da direzioni variabili
Temperature 14°C
Umidità 82%
Pressione 1024 hPa
Visibilità: 6000 m

METAR: LFPG 191730Z VRB06KT 6000 NSC 14/11 Q1024 NOSIG

Ora: 20:02 (18:02 UTC)

Previsione

Il bollettino è stato emesso 1 ora e 2 minuti fa, alle 17:00 UTC
Previsione valida dal 19 alle 18 UTC al 20 alle 24 UTC
Vento 10 kt da nord/nord-est
Visibilità: 8000 m
Probabilità 40%
dal 20 alle 02 UTC al 20 alle 05 UTC
Visibilità: 4000 m
foschia

TAF: LFPG 191700Z 1918/2024 02010KT 8000 NSW NSC TX19/2014Z TN09/2006Z PROB40 2002/2005 4000 BR

Osservazioni e previsioni meteorologiche di più di 4000 aeroporti (messaggi METAR e TAF).

Le stazioni disponibili sono rappresentate dai dischi gialli e rossi sulla carta.

Puntare il mouse per vedere il nome della stazione.

Clicca sopra per visualizzare le osservazioni e previsioni meteorologiche.

Per cambiare la mappa : fare clic sui pulsanti verdi con una croce nera per ingrandire, il pulsante verde con un trattino per diminuire, o sulla freccia verde per le mappe adiacenti.


METAR-TAF: